Time;durP1;ratioP1;P1;durP2;ratioP2;P2;SDS_P1;SDS_P2;PMS_P1;PMS_P2;Temp;Humidity;BMP_temperature;BMP_pressure;BME280_temperature;BME280_humidity;BME280_pressure;Samples;Min_cycle;Max_cycle;Signal;HPM_P1;HPM_P2
2023/12/23 00:01:11;;;;;;;0.40;0.40;;;;;;;;;;6182001;28;20397;-85
2023/12/23 00:04:13;;;;;;;0.55;0.50;;;;;;;;;;6207064;28;20041;-85
2023/12/23 00:07:14;;;;;;;0.43;0.43;;;;;;;;;;6172473;28;20492;-84
2023/12/23 00:10:16;;;;;;;1.45;1.00;;;;;;;;;;6187529;28;20707;-85
2023/12/23 00:13:18;;;;;;;3.05;0.70;;;;;;;;;;6174606;28;20046;-86
2023/12/23 00:16:19;;;;;;;3.00;1.00;;;;;;;;;;6173539;28;20034;-83
2023/12/23 00:19:22;;;;;;;2.90;0.70;;;;;;;;;;6190806;28;20046;-83
2023/12/23 00:22:24;;;;;;;2.55;1.20;;;;;;;;;;6172565;28;20064;-85
2023/12/23 00:25:26;;;;;;;2.83;1.00;;;;;;;;;;6154426;28;20053;-85
2023/12/23 00:28:27;;;;;;;3.33;0.80;;;;;;;;;;6187914;28;20048;-85
2023/12/23 00:31:29;;;;;;;1.08;0.90;;;;;;;;;;6173108;28;20046;-84
2023/12/23 00:34:31;;;;;;;2.03;0.77;;;;;;;;;;6188669;28;20042;-86
2023/12/23 00:37:34;;;;;;;3.00;1.10;;;;;;;;;;6168229;28;20532;-84
2023/12/23 00:40:36;;;;;;;6.32;1.10;;;;;;;;;;6168688;28;20069;-83
2023/12/23 00:43:37;;;;;;;0.80;0.80;;;;;;;;;;6191258;28;20121;-84
2023/12/23 00:46:39;;;;;;;2.05;1.45;;;;;;;;;;6166573;28;20058;-85
2023/12/23 00:49:41;;;;;;;2.40;0.93;;;;;;;;;;6156479;28;20061;-85
2023/12/23 00:52:43;;;;;;;1.33;1.08;;;;;;;;;;6170005;28;20042;-86
2023/12/23 00:55:45;;;;;;;6.57;1.20;;;;;;;;;;6177950;28;20045;-85
2023/12/23 00:58:47;;;;;;;1.13;0.90;;;;;;;;;;6173657;28;20040;-85
2023/12/23 01:01:49;;;;;;;2.83;0.85;;;;;;;;;;6182350;28;20045;-86
2023/12/23 01:04:50;;;;;;;3.03;0.90;;;;;;;;;;6178596;28;20056;-85
2023/12/23 01:07:53;;;;;;;6.38;1.63;;;;;;;;;;6184186;28;20049;-83
2023/12/23 01:10:55;;;;;;;1.58;0.90;;;;;;;;;;6198778;28;20041;-85
2023/12/23 01:13:56;;;;;;;3.00;1.10;;;;;;;;;;6196232;28;20117;-84
2023/12/23 01:17:01;;;;;;;2.00;1.10;;;;;;;;;;6197480;28;20045;-83
2023/12/23 01:20:04;;;;;;;2.67;1.38;;;;;;;;;;6194763;28;20185;-84
2023/12/23 01:23:11;;;;;;;2.05;0.73;;;;;;;;;;6197173;28;20077;-85
2023/12/23 01:26:14;;;;;;;0.85;0.82;;;;;;;;;;6198511;28;20045;-85
2023/12/23 01:29:15;;;;;;;3.90;1.00;;;;;;;;;;6200242;28;20058;-84
2023/12/23 01:32:17;;;;;;;1.77;0.90;;;;;;;;;;6196585;28;20085;-83
2023/12/23 01:35:19;;;;;;;6.30;1.00;;;;;;;;;;6175775;28;20053;-85
2023/12/23 01:38:21;;;;;;;2.25;1.30;;;;;;;;;;6175242;28;20544;-83
2023/12/23 01:41:23;;;;;;;2.07;1.10;;;;;;;;;;6192081;28;20081;-84
2023/12/23 01:44:25;;;;;;;3.70;1.02;;;;;;;;;;6200067;28;20830;-83
2023/12/23 01:47:27;;;;;;;2.92;1.20;;;;;;;;;;6177167;28;20046;-85
2023/12/23 01:50:29;;;;;;;4.80;1.10;;;;;;;;;;6198228;28;20042;-84
2023/12/23 01:53:33;;;;;;;3.78;1.13;;;;;;;;;;6167512;28;20500;-83
2023/12/23 01:56:35;;;;;;;2.78;1.20;;;;;;;;;;6177989;28;20045;-85
2023/12/23 01:59:37;;;;;;;3.33;1.10;;;;;;;;;;6193263;28;20116;-84
2023/12/23 02:02:40;;;;;;;5.05;1.40;;;;;;;;;;6173099;28;20046;-83
2023/12/23 02:05:45;;;;;;;5.00;1.30;;;;;;;;;;6193039;28;20046;-83
2023/12/23 02:08:47;;;;;;;1.88;0.90;;;;;;;;;;6169342;28;20050;-83
2023/12/23 02:12:02;;;;;;;3.63;0.90;;;;;;;;;;6159128;28;20046;-84
2023/12/23 02:15:08;;;;;;;1.20;0.82;;;;;;;;;;6176425;28;20469;-84
2023/12/23 02:18:11;;;;;;;2.15;0.98;;;;;;;;;;6177353;28;20050;-85
2023/12/23 02:21:13;;;;;;;3.40;0.95;;;;;;;;;;6195031;28;20050;-85
2023/12/23 02:24:14;;;;;;;1.23;0.60;;;;;;;;;;6180550;28;20503;-82
2023/12/23 02:27:29;;;;;;;2.58;1.23;;;;;;;;;;6163419;28;20054;-84
2023/12/23 02:30:33;;;;;;;1.73;0.73;;;;;;;;;;6168955;28;20066;-84
2023/12/23 02:33:35;;;;;;;0.93;0.60;;;;;;;;;;6176272;28;20056;-85
2023/12/23 02:36:38;;;;;;;1.20;0.90;;;;;;;;;;6161248;28;20489;-84
2023/12/23 02:39:40;;;;;;;3.25;0.90;;;;;;;;;;6186781;28;20046;-84
2023/12/23 02:42:42;;;;;;;3.33;1.13;;;;;;;;;;6209855;28;20049;-85
2023/12/23 02:45:44;;;;;;;1.20;0.90;;;;;;;;;;6192470;28;20576;-84
2023/12/23 02:48:46;;;;;;;1.77;0.60;;;;;;;;;;6186043;28;20041;-85
2023/12/23 02:51:47;;;;;;;0.82;0.65;;;;;;;;;;6174072;28;20527;-85
2023/12/23 02:54:49;;;;;;;3.80;0.77;;;;;;;;;;6188760;28;20095;-85
2023/12/23 02:57:51;;;;;;;1.15;0.55;;;;;;;;;;6211327;23;20049;-83
2023/12/23 03:00:52;;;;;;;0.93;0.55;;;;;;;;;;6215855;28;20119;-83
2023/12/23 03:03:54;;;;;;;1.50;0.60;;;;;;;;;;6199716;28;20042;-84
2023/12/23 03:06:56;;;;;;;1.15;0.60;;;;;;;;;;6197658;28;20504;-84
2023/12/23 03:09:58;;;;;;;1.45;0.50;;;;;;;;;;6206480;28;20132;-83
2023/12/23 03:13:00;;;;;;;1.38;0.57;;;;;;;;;;6204403;28;20121;-83
2023/12/23 03:16:02;;;;;;;1.38;0.28;;;;;;;;;;6190718;28;20045;-83
2023/12/23 03:19:04;;;;;;;0.43;0.30;;;;;;;;;;6186888;28;20049;-84
2023/12/23 03:22:05;;;;;;;0.30;0.20;;;;;;;;;;6189904;28;20056;-84
2023/12/23 03:25:07;;;;;;;0.20;0.20;;;;;;;;;;6201286;28;20082;-84
2023/12/23 03:28:09;;;;;;;1.50;0.30;;;;;;;;;;6216321;28;20044;-83
2023/12/23 03:31:11;;;;;;;0.43;0.32;;;;;;;;;;6239502;28;20034;-83
2023/12/23 03:34:12;;;;;;;2.17;0.40;;;;;;;;;;6232326;28;20072;-84
2023/12/23 03:37:14;;;;;;;0.95;0.30;;;;;;;;;;6190776;28;20410;-83
2023/12/23 03:40:18;;;;;;;0.95;0.43;;;;;;;;;;6199412;28;20049;-84
2023/12/23 03:43:19;;;;;;;1.35;0.40;;;;;;;;;;6197249;28;20034;-84
2023/12/23 03:46:22;;;;;;;0.68;0.40;;;;;;;;;;6220284;28;20048;-84
2023/12/23 03:49:23;;;;;;;0.82;0.40;;;;;;;;;;6204573;28;20121;-84
2023/12/23 03:52:25;;;;;;;0.45;0.45;;;;;;;;;;6185843;28;20064;-85
2023/12/23 03:55:32;;;;;;;1.45;0.40;;;;;;;;;;6205697;28;20058;-84
2023/12/23 03:58:34;;;;;;;0.45;0.45;;;;;;;;;;6203523;28;20234;-84
2023/12/23 04:01:37;;;;;;;0.40;0.40;;;;;;;;;;6208463;28;20053;-84
2023/12/23 04:04:39;;;;;;;1.50;0.50;;;;;;;;;;6201997;28;20484;-84
2023/12/23 04:07:41;;;;;;;1.15;0.63;;;;;;;;;;6218552;28;20050;-84
2023/12/23 04:10:42;;;;;;;1.33;0.73;;;;;;;;;;6219996;28;20049;-84
2023/12/23 04:13:44;;;;;;;1.92;0.60;;;;;;;;;;6208580;28;20045;-84
2023/12/23 04:16:47;;;;;;;3.17;0.80;;;;;;;;;;6203149;28;20132;-84
2023/12/23 04:19:50;;;;;;;0.80;0.80;;;;;;;;;;6193978;28;20046;-83
2023/12/23 04:22:52;;;;;;;1.63;0.98;;;;;;;;;;6211039;28;20045;-82
2023/12/23 04:25:55;;;;;;;1.23;0.70;;;;;;;;;;6192369;28;20407;-83
2023/12/23 04:28:57;;;;;;;2.10;0.73;;;;;;;;;;6205872;28;20069;-82
2023/12/23 04:31:59;;;;;;;0.80;0.77;;;;;;;;;;6203007;28;20045;-82
2023/12/23 04:35:01;;;;;;;1.95;1.00;;;;;;;;;;6199565;28;20461;-82
2023/12/23 04:38:03;;;;;;;2.70;1.20;;;;;;;;;;6189777;28;20133;-82
2023/12/23 04:41:06;;;;;;;2.45;1.67;;;;;;;;;;6203148;28;20049;-83
2023/12/23 04:44:11;;;;;;;4.45;1.70;;;;;;;;;;6197396;28;20397;-82
2023/12/23 04:47:13;;;;;;;2.22;1.50;;;;;;;;;;6211057;28;20135;-82
2023/12/23 04:50:14;;;;;;;2.95;1.38;;;;;;;;;;6206466;28;20049;-82
2023/12/23 04:53:17;;;;;;;1.40;1.30;;;;;;;;;;6206413;28;20127;-83
2023/12/23 04:56:19;;;;;;;1.63;1.10;;;;;;;;;;6216159;28;20423;-83
2023/12/23 04:59:21;;;;;;;2.33;1.10;;;;;;;;;;6217961;28;20041;-84
2023/12/23 05:02:23;;;;;;;1.35;1.25;;;;;;;;;;6205460;28;20053;-83
2023/12/23 05:05:25;;;;;;;1.88;1.00;;;;;;;;;;6202412;28;20098;-83
2023/12/23 05:08:27;;;;;;;1.70;0.80;;;;;;;;;;6192900;28;20077;-83
2023/12/23 05:11:29;;;;;;;3.10;2.20;;;;;;;;;;6191992;28;20042;-83
2023/12/23 05:14:30;;;;;;;1.23;0.90;;;;;;;;;;6190634;28;20530;-83
2023/12/23 05:17:32;;;;;;;1.25;0.73;;;;;;;;;;6199526;28;20104;-83
2023/12/23 05:20:34;;;;;;;1.70;0.90;;;;;;;;;;6221047;28;20066;-83
2023/12/23 05:23:36;;;;;;;1.65;0.70;;;;;;;;;;6201414;28;20045;-83
2023/12/23 05:26:38;;;;;;;2.10;0.70;;;;;;;;;;6199264;28;20057;-84
2023/12/23 05:29:40;;;;;;;3.03;0.95;;;;;;;;;;6202285;28;20095;-84
2023/12/23 05:32:41;;;;;;;0.80;0.80;;;;;;;;;;6221693;28;20392;-83
2023/12/23 05:35:43;;;;;;;2.33;1.00;;;;;;;;;;6200791;28;20069;-85
2023/12/23 05:38:45;;;;;;;2.85;0.73;;;;;;;;;;6202957;28;20053;-85
2023/12/23 05:41:47;;;;;;;1.05;0.60;;;;;;;;;;6199431;28;20053;-84
2023/12/23 05:44:48;;;;;;;3.10;0.93;;;;;;;;;;6204795;28;20057;-84
2023/12/23 05:47:50;;;;;;;2.03;0.70;;;;;;;;;;6180988;28;20034;-84
2023/12/23 05:50:52;;;;;;;3.25;0.77;;;;;;;;;;6205413;28;20042;-84
2023/12/23 05:53:54;;;;;;;2.08;0.82;;;;;;;;;;6202858;28;20519;-84
2023/12/23 05:56:55;;;;;;;1.45;0.60;;;;;;;;;;6191658;28;20163;-84
2023/12/23 05:59:57;;;;;;;1.65;0.73;;;;;;;;;;6208830;28;20056;-83
2023/12/23 06:02:59;;;;;;;5.45;2.45;;;;;;;;;;6203096;28;20048;-84
2023/12/23 06:06:03;;;;;;;2.30;0.75;;;;;;;;;;6196262;28;20123;-84
2023/12/23 06:09:06;;;;;;;0.60;0.50;;;;;;;;;;6219289;28;20364;-84
2023/12/23 06:12:08;;;;;;;2.92;1.95;;;;;;;;;;6221982;28;20264;-85
2023/12/23 06:15:10;;;;;;;0.85;0.80;;;;;;;;;;6241731;28;20274;-85
2023/12/23 06:18:12;;;;;;;1.50;0.50;;;;;;;;;;6249912;28;20053;-84
2023/12/23 06:21:14;;;;;;;1.33;0.80;;;;;;;;;;6210606;28;20057;-84
2023/12/23 06:24:15;;;;;;;1.27;0.47;;;;;;;;;;6210756;28;20129;-84
2023/12/23 06:27:17;;;;;;;0.65;0.57;;;;;;;;;;6213727;28;20044;-85
2023/12/23 06:30:19;;;;;;;1.63;0.70;;;;;;;;;;6197837;28;20042;-84
2023/12/23 06:33:21;;;;;;;0.82;0.80;;;;;;;;;;6206534;28;20052;-84
2023/12/23 06:36:23;;;;;;;1.40;0.65;;;;;;;;;;6192709;28;20068;-84
2023/12/23 06:39:25;;;;;;;0.50;0.50;;;;;;;;;;6221058;28;20065;-84
2023/12/23 06:42:26;;;;;;;0.77;0.50;;;;;;;;;;6197322;28;20071;-84
2023/12/23 06:45:28;;;;;;;1.55;0.60;;;;;;;;;;6210337;28;20058;-84
2023/12/23 06:48:30;;;;;;;1.20;0.52;;;;;;;;;;6212675;28;20045;-84
2023/12/23 06:51:36;;;;;;;2.53;0.60;;;;;;;;;;6214047;28;20060;-84
2023/12/23 06:54:37;;;;;;;4.35;2.00;;;;;;;;;;6194064;28;20042;-85
2023/12/23 06:57:39;;;;;;;3.88;0.85;;;;;;;;;;6211967;28;20444;-84
2023/12/23 07:00:41;;;;;;;1.38;0.50;;;;;;;;;;6210066;28;20175;-85
2023/12/23 07:03:43;;;;;;;0.98;0.73;;;;;;;;;;6203819;28;20452;-86
2023/12/23 07:06:44;;;;;;;1.85;0.70;;;;;;;;;;6210926;28;20053;-84
2023/12/23 07:09:46;;;;;;;4.80;3.20;;;;;;;;;;6196147;28;20104;-84
2023/12/23 07:13:01;;;;;;;3.90;2.22;;;;;;;;;;6207044;28;20062;-86
2023/12/23 07:16:03;;;;;;;4.53;0.63;;;;;;;;;;6208967;28;20037;-84
2023/12/23 07:19:05;;;;;;;1.70;1.00;;;;;;;;;;6209888;28;20052;-85
2023/12/23 07:22:07;;;;;;;1.10;0.70;;;;;;;;;;6201053;28;20084;-86
2023/12/23 07:25:09;;;;;;;1.20;0.70;;;;;;;;;;6207329;28;20168;-84
2023/12/23 07:28:11;;;;;;;1.30;0.82;;;;;;;;;;6222616;28;20132;-85
2023/12/23 07:31:13;;;;;;;0.63;0.60;;;;;;;;;;6221616;28;20060;-86
2023/12/23 07:34:15;;;;;;;1.02;0.80;;;;;;;;;;6196429;28;20121;-86
2023/12/23 07:37:17;;;;;;;1.33;0.70;;;;;;;;;;6198104;28;20125;-83
2023/12/23 07:40:19;;;;;;;1.05;0.43;;;;;;;;;;6206405;28;20038;-85
2023/12/23 07:43:22;;;;;;;1.27;0.45;;;;;;;;;;6197304;28;20288;-87
2023/12/23 07:46:24;;;;;;;;;;;;;;;;;;6199882;28;20037;-87
2023/12/23 07:49:26;;;;;;;0.93;0.40;;;;;;;;;;6247468;28;19984;-88
2023/12/23 07:52:28;;;;;;;1.08;0.55;;;;;;;;;;6223002;28;20512;-88
2023/12/23 07:55:30;;;;;;;0.50;0.35;;;;;;;;;;6200124;28;20123;-87
2023/12/23 07:58:35;;;;;;;1.33;0.40;;;;;;;;;;6158190;28;20059;-88
2023/12/23 08:01:45;;;;;;;1.67;0.80;;;;;;;;;;6184349;28;20049;-88
2023/12/23 08:04:50;;;;;;;0.55;0.55;;;;;;;;;;6173288;28;20072;-91
2023/12/23 08:07:52;;;;;;;0.98;0.70;;;;;;;;;;6191302;28;20102;-86
2023/12/23 08:10:54;;;;;;;0.80;0.70;;;;;;;;;;6196861;28;20052;-82
2023/12/23 08:13:56;;;;;;;0.40;0.40;;;;;;;;;;6208717;28;20188;-86
2023/12/23 08:16:58;;;;;;;2.38;0.52;;;;;;;;;;6200481;28;20046;-86
2023/12/23 08:20:00;;;;;;;1.48;0.60;;;;;;;;;;6226446;28;20037;-87
2023/12/23 08:23:02;;;;;;;0.47;0.47;;;;;;;;;;6191089;28;20049;-86
2023/12/23 08:26:04;;;;;;;0.63;0.50;;;;;;;;;;6188548;28;20136;-87
2023/12/23 08:29:06;;;;;;;0.50;0.40;;;;;;;;;;6227956;28;20134;-87
2023/12/23 08:32:08;;;;;;;0.40;0.40;;;;;;;;;;6189174;28;20519;-86
2023/12/23 08:35:10;;;;;;;2.90;0.50;;;;;;;;;;6217691;28;20049;-86
2023/12/23 08:38:12;;;;;;;1.75;0.50;;;;;;;;;;6231835;28;20048;-88
2023/12/23 08:41:14;;;;;;;0.52;0.52;;;;;;;;;;6229168;28;20049;-89
2023/12/23 08:44:17;;;;;;;0.63;0.52;;;;;;;;;;6220925;28;20048;-88
2023/12/23 08:47:19;;;;;;;1.20;0.68;;;;;;;;;;6221988;28;20171;-88
2023/12/23 08:50:22;;;;;;;0.75;0.50;;;;;;;;;;6210369;28;20173;-87
2023/12/23 08:53:24;;;;;;;0.55;0.47;;;;;;;;;;6204981;28;20053;-88
2023/12/23 08:56:26;;;;;;;3.35;0.40;;;;;;;;;;6213054;28;20112;-88
2023/12/23 08:59:29;;;;;;;0.35;0.30;;;;;;;;;;6174626;28;20057;-87
2023/12/23 09:02:31;;;;;;;0.75;0.60;;;;;;;;;;6212465;28;20459;-88
2023/12/23 09:05:33;;;;;;;1.48;0.50;;;;;;;;;;6220584;28;20059;-91
2023/12/23 09:08:35;;;;;;;1.23;0.57;;;;;;;;;;6181630;28;20118;-87
2023/12/23 09:11:43;;;;;;;0.60;0.32;;;;;;;;;;6214854;28;20041;-87
2023/12/23 09:14:49;;;;;;;0.50;0.40;;;;;;;;;;6221954;28;20049;-86
2023/12/23 09:17:51;;;;;;;0.90;0.35;;;;;;;;;;6209171;28;20128;-86
2023/12/23 09:20:55;;;;;;;0.73;0.57;;;;;;;;;;6193940;28;20049;-91
2023/12/23 09:23:57;;;;;;;0.95;0.50;;;;;;;;;;6240192;28;20058;-89
2023/12/23 09:26:59;;;;;;;1.35;0.55;;;;;;;;;;6212191;28;20050;-92
2023/12/23 09:30:01;;;;;;;0.52;0.50;;;;;;;;;;6212528;28;20113;-86
2023/12/23 09:33:05;;;;;;;1.35;0.50;;;;;;;;;;6241747;28;20064;-88
2023/12/23 09:36:08;;;;;;;1.60;0.77;;;;;;;;;;6215564;28;20046;-88
2023/12/23 09:39:10;;;;;;;0.77;0.40;;;;;;;;;;6221182;28;20547;-87
2023/12/23 09:42:12;;;;;;;1.08;0.85;;;;;;;;;;6200442;28;20390;-86
2023/12/23 09:45:16;;;;;;;0.70;0.70;;;;;;;;;;6223694;28;20038;-87
2023/12/23 09:48:20;;;;;;;2.03;0.95;;;;;;;;;;6208849;28;20049;-87
2023/12/23 09:51:27;;;;;;;2.40;1.10;;;;;;;;;;6187012;28;20440;-89
2023/12/23 09:54:37;;;;;;;1.85;0.93;;;;;;;;;;6201108;28;20057;-86
2023/12/23 09:57:39;;;;;;;1.65;1.30;;;;;;;;;;6206752;28;20045;-86
2023/12/23 10:00:41;;;;;;;3.60;2.03;;;;;;;;;;6183177;28;20416;-87
2023/12/23 10:03:43;;;;;;;4.22;1.75;;;;;;;;;;6212274;28;20187;-86
2023/12/23 10:06:45;;;;;;;4.15;1.63;;;;;;;;;;6202032;28;20159;-84
2023/12/23 10:09:50;;;;;;;3.75;1.63;;;;;;;;;;6198634;28;20099;-84
2023/12/23 10:12:52;;;;;;;3.50;1.52;;;;;;;;;;6200086;28;20042;-86
2023/12/23 10:15:54;;;;;;;2.97;1.05;;;;;;;;;;6209340;28;20041;-85
2023/12/23 10:18:56;;;;;;;3.33;0.98;;;;;;;;;;6214542;28;20057;-84
2023/12/23 10:21:59;;;;;;;3.15;1.10;;;;;;;;;;6200473;28;20053;-88
2023/12/23 10:25:05;;;;;;;1.90;0.85;;;;;;;;;;6195041;28;20132;-87
2023/12/23 10:28:09;;;;;;;2.47;1.20;;;;;;;;;;6221616;28;20049;-86
2023/12/23 10:31:18;;;;;;;1.77;1.00;;;;;;;;;;6194335;28;20077;-86
2023/12/23 10:34:21;;;;;;;1.40;0.80;;;;;;;;;;6204529;28;20050;-86
2023/12/23 10:37:24;;;;;;;1.42;0.90;;;;;;;;;;6189162;28;20045;-87
2023/12/23 10:40:28;;;;;;;2.33;0.80;;;;;;;;;;6185810;28;20054;-87
2023/12/23 10:43:32;;;;;;;1.48;0.55;;;;;;;;;;6210275;28;20416;-87
2023/12/23 10:46:34;;;;;;;1.88;0.93;;;;;;;;;;6207159;28;20518;-87
2023/12/23 10:49:37;;;;;;;1.05;0.73;;;;;;;;;;6200146;28;20052;-87
2023/12/23 10:53:11;;;;;;;1.07;0.97;;;;;;;;;;6194948;28;20046;-86
2023/12/23 10:56:15;;;;;;;1.25;0.50;;;;;;;;;;6161427;28;20132;-86
2023/12/23 10:59:17;;;;;;;1.95;1.05;;;;;;;;;;6190868;28;20045;-87
2023/12/23 11:02:26;;;;;;;0.73;0.63;;;;;;;;;;6221434;28;20025;-90
2023/12/23 11:05:31;;;;;;;0.93;0.82;;;;;;;;;;6224107;28;20057;-86
2023/12/23 11:08:35;;;;;;;0.90;0.77;;;;;;;;;;6202622;28;20056;-87
2023/12/23 11:11:39;;;;;;;1.20;0.70;;;;;;;;;;6209333;28;20045;-87
2023/12/23 11:14:41;;;;;;;1.58;0.75;;;;;;;;;;6213318;28;20084;-87
2023/12/23 11:17:45;;;;;;;0.80;0.70;;;;;;;;;;6210718;28;20523;-87
2023/12/23 11:20:50;;;;;;;1.15;0.82;;;;;;;;;;6207206;28;20511;-85
2023/12/23 11:23:54;;;;;;;1.10;0.60;;;;;;;;;;6206509;28;20496;-87
2023/12/23 11:27:00;;;;;;;2.55;0.70;;;;;;;;;;6187677;28;20119;-86
2023/12/23 11:30:02;;;;;;;0.85;0.60;;;;;;;;;;6195096;28;20049;-85
2023/12/23 11:33:07;;;;;;;0.40;0.40;;;;;;;;;;6190031;28;20050;-86
2023/12/23 11:36:09;;;;;;;0.73;0.40;;;;;;;;;;6209312;28;20133;-87
2023/12/23 11:39:12;;;;;;;1.98;0.63;;;;;;;;;;6199029;28;20061;-87
2023/12/23 11:42:14;;;;;;;0.88;0.60;;;;;;;;;;6201810;28;20046;-87
2023/12/23 11:45:16;;;;;;;1.85;1.67;;;;;;;;;;6208720;28;20411;-87
2023/12/23 11:48:20;;;;;;;1.60;0.50;;;;;;;;;;6198199;28;20045;-86
2023/12/23 11:51:23;;;;;;;0.77;0.63;;;;;;;;;;6206778;28;20052;-87
2023/12/23 11:54:27;;;;;;;0.43;0.40;;;;;;;;;;6189584;28;20500;-85
2023/12/23 11:57:33;;;;;;;19.38;7.05;;;;;;;;;;6181768;28;20046;-85
2023/12/23 12:00:38;;;;;;;0.32;0.30;;;;;;;;;;6184653;28;20056;-87
2023/12/23 12:03:40;;;;;;;1.23;0.50;;;;;;;;;;6181700;28;20305;-85
2023/12/23 12:06:42;;;;;;;0.45;0.45;;;;;;;;;;6206052;28;20045;-86
2023/12/23 12:09:44;;;;;;;1.08;0.50;;;;;;;;;;6210176;28;20056;-86
2023/12/23 12:12:46;;;;;;;1.35;0.30;;;;;;;;;;6204157;28;20046;-85
2023/12/23 12:15:51;;;;;;;41.15;16.27;;;;;;;;;;6193392;28;20045;-86
2023/12/23 12:18:53;;;;;;;0.77;0.63;;;;;;;;;;6194696;28;20050;-86
2023/12/23 12:22:01;;;;;;;14.18;5.82;;;;;;;;;;6157863;28;20079;-87
2023/12/23 12:25:05;;;;;;;0.35;0.25;;;;;;;;;;6188187;28;20041;-85
2023/12/23 12:28:07;;;;;;;0.50;0.32;;;;;;;;;;6220993;28;20050;-88
2023/12/23 12:31:12;;;;;;;0.63;0.30;;;;;;;;;;6167326;28;20033;-89
2023/12/23 12:34:15;;;;;;;0.50;0.30;;;;;;;;;;6196234;28;20046;-90
2023/12/23 12:37:17;;;;;;;0.60;0.33;;;;;;;;;;6175030;28;20044;-89
2023/12/23 12:40:19;;;;;;;0.50;0.40;;;;;;;;;;6194206;28;20456;-91
2023/12/23 12:43:41;;;;;;;0.85;0.77;;;;;;;;;;6186368;28;20463;-90
2023/12/23 12:47:09;;;;;;;1.35;0.50;;;;;;;;;;6210777;28;20045;-90
2023/12/23 12:50:53;;;;;;;1.38;0.32;;;;;;;;;;6180812;28;20050;-89
2023/12/23 12:53:56;;;;;;;1.40;1.25;;;;;;;;;;6115621;28;20056;-90
2023/12/23 12:57:39;;;;;;;1.60;0.70;;;;;;;;;;6201927;28;20464;-89
2023/12/23 13:01:21;;;;;;;0.68;0.68;;;;;;;;;;6169345;28;20045;-90
2023/12/23 13:04:29;;;;;;;;;;;;;;;;;;6149374;28;20049;-89
2023/12/23 13:07:46;;;;;;;3.67;1.55;;;;;;;;;;6163720;28;19929;-90
2023/12/23 13:11:07;;;;;;;1.40;0.50;;;;;;;;;;6180654;28;20042;-90
2023/12/23 13:14:10;;;;;;;0.53;0.53;;;;;;;;;;6170204;28;20038;-89
2023/12/23 13:17:47;;;;;;;1.50;0.68;;;;;;;;;;6148392;28;20412;-89
2023/12/23 13:20:56;;;;;;;1.75;0.45;;;;;;;;;;6190852;28;20502;-89
2023/12/23 13:24:13;;;;;;;0.60;0.60;;;;;;;;;;6187563;28;20319;-91
2023/12/23 13:27:18;;;;;;;1.35;0.60;;;;;;;;;;6208042;28;20050;-89
2023/12/23 13:31:10;;;;;;;1.30;0.80;;;;;;;;;;6208916;28;20041;-88
2023/12/23 13:34:18;;;;;;;3.88;1.08;;;;;;;;;;6210130;28;20189;-89
2023/12/23 13:37:21;;;;;;;;;;;;;;;;;;6179349;28;20085;-89
2023/12/23 13:40:22;;;;;;;0.88;0.80;;;;;;;;;;6196816;28;19953;-88
2023/12/23 13:43:25;;;;;;;1.33;0.80;;;;;;;;;;6218148;28;20052;-89
2023/12/23 13:46:27;;;;;;;2.22;0.80;;;;;;;;;;6189669;28;20045;-89
2023/12/23 13:49:29;;;;;;;1.17;0.77;;;;;;;;;;6202402;28;20061;-88
2023/12/23 13:52:31;;;;;;;1.40;0.93;;;;;;;;;;6214384;28;20552;-89
2023/12/23 13:55:33;;;;;;;0.88;0.43;;;;;;;;;;6208263;28;20049;-89
2023/12/23 13:58:35;;;;;;;1.35;0.80;;;;;;;;;;6209362;28;20038;-89
2023/12/23 14:01:37;;;;;;;1.70;0.70;;;;;;;;;;6208519;28;20043;-89
2023/12/23 14:04:39;;;;;;;0.88;0.63;;;;;;;;;;6207422;28;20060;-90
2023/12/23 14:07:41;;;;;;;1.42;0.80;;;;;;;;;;6208921;28;20159;-89
2023/12/23 14:10:45;;;;;;;0.50;0.50;;;;;;;;;;6200481;28;20056;-89
2023/12/23 14:13:50;;;;;;;0.60;0.60;;;;;;;;;;6195969;28;20033;-90
2023/12/23 14:16:52;;;;;;;0.60;0.60;;;;;;;;;;6208297;28;21453;-91
2023/12/23 14:19:55;;;;;;;0.68;0.65;;;;;;;;;;6196579;28;20046;-89
2023/12/23 14:22:58;;;;;;;0.50;0.50;;;;;;;;;;6200619;28;20056;-90
2023/12/23 14:26:00;;;;;;;0.80;0.60;;;;;;;;;;6200013;28;20045;-88
2023/12/23 14:29:05;;;;;;;2.28;0.85;;;;;;;;;;6193063;28;20120;-86
2023/12/23 14:32:07;;;;;;;1.88;1.77;;;;;;;;;;6169940;28;20048;-87
2023/12/23 14:35:10;;;;;;;0.75;0.73;;;;;;;;;;6207788;28;20494;-87
2023/12/23 14:38:13;;;;;;;1.05;0.60;;;;;;;;;;6181075;28;20049;-89
2023/12/23 14:41:25;;;;;;;2.55;0.68;;;;;;;;;;6172711;28;20049;-89
2023/12/23 14:44:30;;;;;;;1.33;0.77;;;;;;;;;;6191948;28;20058;-87
2023/12/23 14:47:32;;;;;;;1.00;0.50;;;;;;;;;;6206285;28;20090;-88
2023/12/23 14:50:34;;;;;;;2.58;0.80;;;;;;;;;;6172430;28;20041;-87
2023/12/23 14:53:36;;;;;;;0.65;0.50;;;;;;;;;;6171534;28;20049;-88
2023/12/23 14:56:38;;;;;;;1.60;0.70;;;;;;;;;;6204634;28;20438;-88
2023/12/23 14:59:40;;;;;;;1.55;0.77;;;;;;;;;;6225458;28;20064;-88
2023/12/23 15:02:43;;;;;;;1.38;0.70;;;;;;;;;;6217195;28;20108;-87
2023/12/23 15:05:45;;;;;;;;;;;;;;;;;;6191291;28;20062;-87
2023/12/23 15:08:48;;;;;;;0.80;0.80;;;;;;;;;;6181154;28;20348;-87
2023/12/23 15:11:50;;;;;;;1.73;1.00;;;;;;;;;;6192144;28;20037;-86
2023/12/23 15:14:52;;;;;;;2.85;1.30;;;;;;;;;;6190850;28;20045;-87
2023/12/23 15:17:57;;;;;;;2.63;1.40;;;;;;;;;;6188864;28;20076;-87
2023/12/23 15:20:59;;;;;;;2.10;1.20;;;;;;;;;;6169194;28;20527;-86
2023/12/23 15:24:01;;;;;;;1.38;1.13;;;;;;;;;;6167287;28;20049;-86
2023/12/23 15:27:03;;;;;;;1.75;0.80;;;;;;;;;;6182859;28;20041;-86
2023/12/23 15:30:09;;;;;;;2.15;0.95;;;;;;;;;;6197041;28;20531;-85
2023/12/23 15:33:11;;;;;;;1.35;0.90;;;;;;;;;;6209823;28;20045;-87
2023/12/23 15:36:13;;;;;;;0.90;0.90;;;;;;;;;;6209750;28;20627;-87
2023/12/23 15:39:15;;;;;;;1.13;0.90;;;;;;;;;;6185956;28;20046;-85
2023/12/23 15:42:17;;;;;;;2.78;1.25;;;;;;;;;;6208264;28;20045;-86
2023/12/23 15:45:20;;;;;;;1.60;1.20;;;;;;;;;;6194626;28;20118;-86
2023/12/23 15:48:22;;;;;;;2.13;1.15;;;;;;;;;;6176922;28;20161;-86
2023/12/23 15:51:29;;;;;;;3.37;1.07;;;;;;;;;;6211599;28;20052;-87
2023/12/23 15:54:31;;;;;;;3.25;1.30;;;;;;;;;;6227272;28;20091;-90
2023/12/23 15:57:34;;;;;;;3.28;1.30;;;;;;;;;;6228766;28;20045;-87
2023/12/23 16:00:36;;;;;;;1.88;0.93;;;;;;;;;;6192714;28;20057;-87
2023/12/23 16:03:40;;;;;;;;;;;;;;;;;;6188019;28;20054;-87
2023/12/23 16:06:42;;;;;;;4.50;1.38;;;;;;;;;;6190677;28;19921;-85
2023/12/23 16:09:44;;;;;;;1.40;1.20;;;;;;;;;;6192298;28;20041;-88
2023/12/23 16:12:46;;;;;;;1.77;1.20;;;;;;;;;;6201028;28;20116;-89
2023/12/23 16:15:57;;;;;;;1.17;0.90;;;;;;;;;;6181634;28;20048;-87
2023/12/23 16:18:59;;;;;;;2.80;1.10;;;;;;;;;;6203415;28;20577;-87
2023/12/23 16:22:04;;;;;;;1.60;1.30;;;;;;;;;;6187036;28;20124;-88
2023/12/23 16:25:10;;;;;;;2.42;1.23;;;;;;;;;;6179694;28;20469;-89
2023/12/23 16:28:13;;;;;;;2.22;1.38;;;;;;;;;;6157725;28;20053;-89
2023/12/23 16:31:16;;;;;;;4.00;1.30;;;;;;;;;;6171490;28;20046;-87
2023/12/23 16:34:18;;;;;;;4.32;1.25;;;;;;;;;;6169496;28;20056;-88
2023/12/23 16:37:21;;;;;;;1.92;1.33;;;;;;;;;;6201998;28;20052;-87
2023/12/23 16:40:28;;;;;;;4.18;1.30;;;;;;;;;;6186339;28;20516;-87
2023/12/23 16:43:29;;;;;;;2.58;1.30;;;;;;;;;;6185051;28;20121;-87
2023/12/23 16:46:31;;;;;;;3.83;1.40;;;;;;;;;;6201777;28;20049;-87
2023/12/23 16:49:33;;;;;;;2.47;1.30;;;;;;;;;;6212691;28;20469;-87
2023/12/23 16:52:43;;;;;;;2.45;1.10;;;;;;;;;;6202721;28;20064;-88
2023/12/23 16:55:48;;;;;;;1.38;1.10;;;;;;;;;;6189029;28;20591;-86
2023/12/23 16:58:51;;;;;;;1.23;0.90;;;;;;;;;;6187687;28;20057;-87
2023/12/23 17:01:53;;;;;;;2.85;1.38;;;;;;;;;;6197823;28;20106;-86
2023/12/23 17:04:55;;;;;;;3.20;1.20;;;;;;;;;;6210105;28;20041;-85
2023/12/23 17:07:57;;;;;;;1.45;1.25;;;;;;;;;;6203056;28;20046;-88
2023/12/23 17:10:59;;;;;;;2.85;1.50;;;;;;;;;;6199135;28;20049;-88
2023/12/23 17:14:01;;;;;;;2.60;1.42;;;;;;;;;;6209942;28;20075;-88
2023/12/23 17:17:06;;;;;;;1.38;1.20;;;;;;;;;;6184534;28;20049;-88
2023/12/23 17:20:09;;;;;;;2.72;1.48;;;;;;;;;;6175168;28;20046;-88
2023/12/23 17:23:11;;;;;;;;;;;;;;;;;;6203496;28;20050;-88
2023/12/23 17:26:15;;;;;;;2.08;1.00;;;;;;;;;;6178609;28;19929;-86
2023/12/23 17:29:17;;;;;;;1.33;1.20;;;;;;;;;;6177850;28;20520;-86
2023/12/23 17:32:20;;;;;;;1.13;0.88;;;;;;;;;;6197678;28;20144;-88
2023/12/23 17:35:25;;;;;;;4.97;1.17;;;;;;;;;;6246997;28;20029;-91
2023/12/23 17:38:27;;;;;;;2.58;1.10;;;;;;;;;;6227512;28;20049;-89
2023/12/23 17:41:29;;;;;;;1.27;1.00;;;;;;;;;;6206774;28;20130;-88
2023/12/23 17:44:31;;;;;;;1.40;1.30;;;;;;;;;;6183094;28;20056;-88
2023/12/23 17:47:36;;;;;;;1.65;1.10;;;;;;;;;;6206487;28;20049;-88
2023/12/23 17:50:39;;;;;;;1.58;1.00;;;;;;;;;;6209920;28;20048;-88
2023/12/23 17:53:42;;;;;;;2.92;1.27;;;;;;;;;;6193265;28;20041;-88
2023/12/23 17:56:48;;;;;;;3.22;1.30;;;;;;;;;;6204791;28;20360;-88
2023/12/23 17:59:52;;;;;;;2.00;1.08;;;;;;;;;;6208997;28;20837;-88
2023/12/23 18:02:54;;;;;;;3.85;1.98;;;;;;;;;;6191506;28;20042;-88
2023/12/23 18:05:56;;;;;;;2.17;1.20;;;;;;;;;;6193090;28;20041;-88
2023/12/23 18:08:59;;;;;;;2.58;1.42;;;;;;;;;;6196453;28;20053;-88
2023/12/23 18:12:00;;;;;;;2.72;1.73;;;;;;;;;;6192603;28;20432;-88
2023/12/23 18:15:03;;;;;;;1.23;1.13;;;;;;;;;;6173612;28;20046;-88
2023/12/23 18:18:06;;;;;;;2.97;1.40;;;;;;;;;;6221391;28;20077;-88
2023/12/23 18:21:08;;;;;;;2.67;1.60;;;;;;;;;;6206590;28;20042;-84
2023/12/23 18:24:12;;;;;;;2.17;1.58;;;;;;;;;;6208704;28;20048;-86